createdAt,value
2022-11-03T00:02:49.379Z,5.46
2022-11-03T00:07:49.197Z,5.37
2022-11-03T00:12:49.158Z,5.37
2022-11-03T00:17:49.106Z,5.23
2022-11-03T00:22:49.059Z,5.20
2022-11-03T00:27:49.017Z,5.19
2022-11-03T00:32:48.905Z,5.13
2022-11-03T00:37:48.851Z,5.07
2022-11-03T00:42:48.758Z,5.05
2022-11-03T00:47:48.747Z,5.13
2022-11-03T00:52:48.668Z,5.10
2022-11-03T00:57:48.645Z,5.01
2022-11-03T01:02:48.532Z,5.13
2022-11-03T01:07:48.530Z,5.12
2022-11-03T01:12:48.354Z,5.13
2022-11-03T01:17:48.346Z,5.14
2022-11-03T01:22:48.254Z,5.09
2022-11-03T01:27:48.192Z,4.99
2022-11-03T01:32:48.101Z,5.12
2022-11-03T01:37:48.022Z,5.25
2022-11-03T01:42:47.973Z,5.30
2022-11-03T01:47:47.966Z,5.32
2022-11-03T01:52:47.861Z,5.27
2022-11-03T01:57:47.781Z,5.19
2022-11-03T02:02:47.721Z,5.14
2022-11-03T02:07:47.632Z,5.14
2022-11-03T02:12:47.609Z,4.94
2022-11-03T02:17:47.518Z,4.80
2022-11-03T02:22:47.555Z,4.76
2022-11-03T02:27:47.434Z,4.69
2022-11-03T02:32:47.357Z,4.64
2022-11-03T02:37:47.313Z,4.59
2022-11-03T02:42:47.247Z,4.59
2022-11-03T02:47:47.143Z,4.64
2022-11-03T02:52:47.092Z,4.72
2022-11-03T02:57:47.021Z,4.72
2022-11-03T03:02:46.986Z,4.72
2022-11-03T03:07:46.995Z,4.51
2022-11-03T03:12:47.008Z,4.46
2022-11-03T03:17:46.791Z,4.46
2022-11-03T03:22:46.768Z,4.46
2022-11-03T03:27:46.654Z,4.42
2022-11-03T03:32:46.631Z,4.34
2022-11-03T03:37:46.509Z,4.24
2022-11-03T03:42:46.502Z,4.24
2022-11-03T03:47:46.463Z,4.34
2022-11-03T03:52:46.340Z,4.44
2022-11-03T03:57:46.339Z,4.47
2022-11-03T04:02:46.219Z,4.26
2022-11-03T04:07:46.138Z,4.22
2022-11-03T04:12:46.090Z,4.10
2022-11-03T04:22:45.932Z,4.18
2022-11-03T04:27:45.902Z,4.07
2022-11-03T04:32:45.845Z,4.03
2022-11-03T04:37:47.876Z,3.96
2022-11-03T04:42:45.667Z,4.00
2022-11-03T04:47:45.674Z,4.12
2022-11-03T04:52:45.550Z,4.16
2022-11-03T04:57:45.493Z,4.24
2022-11-03T05:02:45.435Z,4.24
2022-11-03T05:07:45.346Z,4.21
2022-11-03T05:12:45.291Z,4.32
2022-11-03T05:17:45.267Z,4.29
2022-11-03T05:22:45.169Z,4.21
2022-11-03T05:27:45.098Z,4.26
2022-11-03T05:32:45.124Z,4.32
2022-11-03T05:37:44.945Z,4.24
2022-11-03T05:42:44.887Z,4.10
2022-11-03T05:47:44.826Z,4.24
2022-11-03T05:52:44.793Z,4.33
2022-11-03T05:57:44.689Z,4.39
2022-11-03T06:02:44.696Z,4.32
2022-11-03T06:07:44.570Z,4.25
2022-11-03T06:12:44.553Z,4.16
2022-11-03T06:17:44.440Z,4.39
2022-11-03T06:22:44.484Z,4.34
2022-11-03T06:27:44.356Z,4.32
2022-11-03T06:32:44.259Z,4.46
2022-11-03T06:37:44.211Z,4.58
2022-11-03T06:42:44.127Z,4.73
2022-11-03T06:47:44.059Z,4.77
2022-11-03T06:52:44.053Z,5.23
2022-11-03T06:57:43.925Z,5.85
2022-11-03T07:02:43.887Z,6.11
2022-11-03T07:07:43.832Z,6.44
2022-11-03T07:12:43.763Z,7.13
2022-11-03T07:17:43.727Z,7.79
2022-11-03T07:22:43.618Z,8.58
2022-11-03T07:27:43.560Z,9.02
2022-11-03T07:32:43.480Z,9.46
2022-11-03T07:37:43.409Z,9.79
2022-11-03T07:42:43.348Z,10.03
2022-11-03T07:47:43.313Z,10.33
2022-11-03T07:52:43.214Z,10.73
2022-11-03T07:57:43.187Z,11.06
2022-11-03T08:02:43.119Z,11.28
2022-11-03T08:07:43.417Z,11.35
2022-11-03T08:12:43.083Z,11.54
2022-11-03T08:17:42.867Z,11.43
2022-11-03T08:22:49.760Z,11.35
2022-11-03T08:27:43.992Z,11.36
2022-11-03T08:32:42.673Z,11.44
2022-11-03T08:37:42.645Z,11.39
2022-11-03T08:42:43.351Z,11.50
2022-11-03T08:47:42.476Z,11.64
2022-11-03T08:52:42.417Z,11.94
2022-11-03T08:57:42.674Z,12.05
2022-11-03T09:02:42.508Z,12.15
2022-11-03T09:12:43.204Z,12.24
2022-11-03T09:17:44.769Z,12.42
2022-11-03T09:22:42.045Z,12.52
2022-11-03T09:27:41.936Z,12.63
2022-11-03T09:32:41.876Z,12.79
2022-11-03T09:37:41.804Z,12.87
2022-11-03T09:42:41.771Z,12.99
2022-11-03T09:47:41.679Z,13.06
2022-11-03T09:52:41.622Z,13.20
2022-11-03T09:57:42.656Z,13.32
2022-11-03T10:02:41.560Z,13.47
2022-11-03T10:07:41.524Z,13.69
2022-11-03T10:12:41.361Z,13.73
2022-11-03T10:17:41.322Z,13.77
2022-11-03T10:22:41.492Z,13.89
2022-11-03T10:27:41.180Z,14.06
2022-11-03T10:32:41.131Z,14.20
2022-11-03T10:37:41.059Z,14.32
2022-11-03T10:42:41.068Z,14.46
2022-11-03T10:47:40.975Z,14.49
2022-11-03T10:52:40.969Z,14.52
2022-11-03T10:57:40.864Z,14.53
2022-11-03T11:02:40.786Z,14.68
2022-11-03T11:07:40.776Z,14.84
2022-11-03T11:12:40.559Z,14.94
2022-11-03T11:17:40.509Z,15.17
2022-11-03T11:22:40.421Z,15.21
2022-11-03T11:27:40.386Z,15.41
2022-11-03T11:32:40.300Z,15.31
2022-11-03T11:37:40.410Z,15.30
2022-11-03T11:42:40.263Z,15.49
2022-11-03T11:47:40.126Z,15.41
2022-11-03T11:52:40.023Z,15.33
2022-11-03T11:57:39.971Z,15.19
2022-11-03T12:02:39.941Z,15.17
2022-11-03T12:07:39.843Z,15.11
2022-11-03T12:12:39.815Z,15.08
2022-11-03T12:17:39.782Z,15.05
2022-11-03T12:22:39.633Z,15.08
2022-11-03T12:27:39.571Z,15.08
2022-11-03T12:32:39.527Z,14.93
2022-11-03T12:37:39.514Z,15.02
2022-11-03T12:42:39.364Z,15.03
2022-11-03T12:47:39.305Z,15.13
2022-11-03T12:52:39.265Z,15.20
2022-11-03T12:57:39.210Z,15.03
2022-11-03T13:02:39.297Z,14.90
2022-11-03T13:07:39.048Z,14.72
2022-11-03T13:12:38.967Z,14.52
2022-11-03T13:18:07.567Z,14.38
2022-11-03T13:22:39.843Z,14.39
2022-11-03T13:27:39.066Z,14.35
2022-11-03T13:32:38.724Z,14.43
2022-11-03T13:37:38.678Z,14.31
2022-11-03T13:42:38.594Z,14.24
2022-11-03T13:48:11.094Z,14.16
2022-11-03T13:52:39.498Z,14.07
2022-11-03T14:07:39.769Z,13.89
2022-11-03T14:12:38.222Z,13.84
2022-11-03T14:17:38.123Z,13.80
2022-11-03T14:22:38.236Z,13.67
2022-11-03T14:27:39.921Z,13.56
2022-11-03T14:32:38.967Z,13.51
2022-11-03T14:37:38.222Z,13.37
2022-11-03T14:42:37.804Z,13.25
2022-11-03T14:47:37.763Z,13.18
2022-11-03T14:52:37.680Z,13.07
2022-11-03T14:57:37.645Z,12.99
2022-11-03T15:02:37.625Z,12.89
2022-11-03T15:07:37.503Z,12.84
2022-11-03T15:12:37.434Z,12.79
2022-11-03T15:17:39.135Z,12.75
2022-11-03T15:27:38.215Z,12.69
2022-11-03T15:32:37.182Z,12.74
2022-11-03T15:37:37.097Z,12.69
2022-11-03T15:42:37.019Z,12.64
2022-11-03T15:47:37.027Z,12.63
2022-11-03T15:52:36.884Z,12.64
2022-11-03T15:57:37.088Z,12.57
2022-11-03T16:02:41.453Z,12.56
2022-11-03T16:07:37.730Z,12.54
2022-11-03T16:12:36.669Z,12.42
2022-11-03T16:17:40.116Z,12.42
2022-11-03T16:22:37.467Z,12.37
2022-11-03T16:27:36.451Z,12.37
2022-11-03T16:32:36.362Z,12.38
2022-11-03T16:37:36.580Z,12.31
2022-11-03T16:42:36.243Z,12.31
2022-11-03T16:47:36.172Z,12.33
2022-11-03T16:52:36.182Z,12.30
2022-11-03T16:57:36.015Z,12.21
2022-11-03T17:02:36.025Z,12.24
2022-11-03T17:07:35.877Z,12.23
2022-11-03T17:12:35.880Z,12.23
2022-11-03T17:17:35.775Z,12.33
2022-11-03T17:22:35.698Z,12.38
2022-11-03T17:27:35.677Z,12.46
2022-11-03T17:32:35.869Z,12.66
2022-11-03T17:37:35.934Z,12.66
2022-11-03T17:42:35.466Z,14.37
2022-11-03T17:47:36.837Z,14.90
2022-11-03T17:52:35.446Z,13.92
2022-11-03T17:57:35.279Z,13.49
2022-11-03T18:02:35.353Z,13.33
2022-11-03T18:07:35.289Z,13.25
2022-11-03T18:12:35.048Z,13.12
2022-11-03T18:17:34.970Z,12.89
2022-11-03T18:22:35.020Z,12.70
2022-11-03T18:27:34.934Z,12.57
2022-11-03T18:32:36.038Z,12.79
2022-11-03T18:37:34.841Z,12.74
2022-11-03T18:42:34.737Z,12.85
2022-11-03T18:47:34.634Z,13.09
2022-11-03T18:52:34.595Z,13.18
2022-11-03T18:57:34.468Z,13.37
2022-11-03T19:02:34.914Z,13.43
2022-11-03T19:07:34.332Z,13.76
2022-11-03T19:12:38.793Z,13.74
2022-11-03T19:17:34.148Z,13.88
2022-11-03T19:22:34.361Z,13.99
2022-11-03T19:27:34.072Z,13.38
2022-11-03T19:32:33.965Z,13.04
2022-11-03T19:37:35.902Z,12.85
2022-11-03T19:42:33.832Z,12.70
2022-11-03T19:47:33.864Z,12.60
2022-11-03T19:52:33.712Z,12.44
2022-11-03T19:57:33.651Z,12.31
2022-11-03T20:02:33.894Z,12.20
2022-11-03T20:07:33.521Z,13.09
2022-11-03T20:12:33.775Z,13.00
2022-11-03T20:17:33.576Z,13.04
2022-11-03T20:22:33.373Z,13.09
2022-11-03T20:27:33.350Z,12.96
2022-11-03T20:32:33.234Z,12.92
2022-11-03T20:37:33.149Z,12.96
2022-11-03T20:42:33.056Z,12.88
2022-11-03T20:47:33.060Z,12.85
2022-11-03T20:52:32.945Z,12.84
2022-11-03T20:57:32.862Z,12.79
2022-11-03T21:02:33.170Z,12.84
2022-11-03T21:07:32.933Z,12.79
2022-11-03T21:12:32.646Z,12.67
2022-11-03T21:17:32.596Z,12.82
2022-11-03T21:27:34.657Z,12.62
2022-11-03T21:32:32.417Z,12.56
2022-11-03T21:37:32.311Z,12.46
2022-11-03T21:42:32.266Z,12.64
2022-11-03T21:47:32.225Z,12.66
2022-11-03T21:52:32.238Z,12.63
2022-11-03T21:57:32.121Z,12.74
2022-11-03T22:02:32.008Z,12.75
2022-11-03T22:07:31.942Z,12.62
2022-11-03T22:12:31.911Z,12.70
2022-11-03T22:17:31.804Z,12.54
2022-11-03T22:22:31.801Z,12.62
2022-11-03T22:27:31.701Z,12.62
2022-11-03T22:32:31.568Z,12.44
2022-11-03T22:38:09.926Z,12.51
2022-11-03T22:43:10.087Z,12.44
2022-11-03T22:48:09.654Z,12.52
2022-11-03T22:53:09.821Z,12.59
2022-11-03T22:58:09.507Z,12.62
2022-11-03T23:03:09.805Z,12.60
2022-11-03T23:08:09.398Z,12.52
2022-11-03T23:13:09.739Z,12.60
2022-11-03T23:18:09.281Z,12.77
2022-11-03T23:23:09.358Z,12.71
2022-11-03T23:28:09.104Z,12.75
2022-11-03T23:33:09.454Z,12.67
2022-11-03T23:38:09.187Z,12.79
2022-11-03T23:43:08.893Z,12.66
2022-11-03T23:48:09.227Z,12.66
2022-11-03T23:53:08.810Z,12.59
2022-11-03T23:58:09.031Z,12.44
